sensor_id;sensor_type;location;lat;lon;timestamp;temperature;humidity
20856;DHT22;63058;49.424;8.420;2023-07-30T00:01:58;23.00;95.80
20856;DHT22;63058;49.424;8.420;2023-07-30T00:04:24;23.00;95.80
20856;DHT22;63058;49.424;8.420;2023-07-30T00:06:50;23.00;95.90
20856;DHT22;63058;49.424;8.420;2023-07-30T00:09:16;23.00;95.80
20856;DHT22;63058;49.424;8.420;2023-07-30T00:11:42;23.00;95.80
20856;DHT22;63058;49.424;8.420;2023-07-30T00:14:07;23.00;95.90
20856;DHT22;63058;49.424;8.420;2023-07-30T00:16:33;23.00;96.10
20856;DHT22;63058;49.424;8.420;2023-07-30T00:18:58;23.00;96.30
20856;DHT22;63058;49.424;8.420;2023-07-30T00:21:24;23.10;96.40
20856;DHT22;63058;49.424;8.420;2023-07-30T00:23:50;23.00;96.40
20856;DHT22;63058;49.424;8.420;2023-07-30T00:26:15;23.10;96.40
20856;DHT22;63058;49.424;8.420;2023-07-30T00:28:41;23.10;96.50
20856;DHT22;63058;49.424;8.420;2023-07-30T00:31:07;23.10;96.60
20856;DHT22;63058;49.424;8.420;2023-07-30T00:33:32;23.10;96.60
20856;DHT22;63058;49.424;8.420;2023-07-30T00:35:58;23.10;96.60
20856;DHT22;63058;49.424;8.420;2023-07-30T00:38:24;23.20;96.60
20856;DHT22;63058;49.424;8.420;2023-07-30T00:40:50;23.20;96.50
20856;DHT22;63058;49.424;8.420;2023-07-30T00:43:16;23.20;96.50
20856;DHT22;63058;49.424;8.420;2023-07-30T00:45:44;23.10;96.40
20856;DHT22;63058;49.424;8.420;2023-07-30T00:48:10;23.10;96.50
20856;DHT22;63058;49.424;8.420;2023-07-30T00:50:36;23.10;96.60
20856;DHT22;63058;49.424;8.420;2023-07-30T00:53:03;23.00;96.70
20856;DHT22;63058;49.424;8.420;2023-07-30T00:55:29;23.00;96.80
20856;DHT22;63058;49.424;8.420;2023-07-30T00:57:57;22.90;96.80
20856;DHT22;63058;49.424;8.420;2023-07-30T01:00:23;22.90;96.90
20856;DHT22;63058;49.424;8.420;2023-07-30T01:02:51;22.90;97.10
20856;DHT22;63058;49.424;8.420;2023-07-30T01:05:17;22.80;97.20
20856;DHT22;63058;49.424;8.420;2023-07-30T01:07:43;22.80;97.30
20856;DHT22;63058;49.424;8.420;2023-07-30T01:10:09;22.80;97.30
20856;DHT22;63058;49.424;8.420;2023-07-30T01:12:35;22.80;97.30
20856;DHT22;63058;49.424;8.420;2023-07-30T01:15:03;22.80;97.50
20856;DHT22;63058;49.424;8.420;2023-07-30T01:17:29;22.80;97.60
20856;DHT22;63058;49.424;8.420;2023-07-30T01:19:55;22.80;97.70
20856;DHT22;63058;49.424;8.420;2023-07-30T01:22:21;22.90;97.80
20856;DHT22;63058;49.424;8.420;2023-07-30T01:24:48;22.90;97.80
20856;DHT22;63058;49.424;8.420;2023-07-30T01:27:23;23.00;97.80
20856;DHT22;63058;49.424;8.420;2023-07-30T01:29:57;23.00;97.60
20856;DHT22;63058;49.424;8.420;2023-07-30T01:32:28;23.10;97.80
20856;DHT22;63058;49.424;8.420;2023-07-30T01:34:56;23.10;97.80
20856;DHT22;63058;49.424;8.420;2023-07-30T01:37:23;23.20;98.00
20856;DHT22;63058;49.424;8.420;2023-07-30T01:39:49;23.20;97.60
20856;DHT22;63058;49.424;8.420;2023-07-30T01:42:15;23.20;97.50
20856;DHT22;63058;49.424;8.420;2023-07-30T01:44:41;23.10;97.50
20856;DHT22;63058;49.424;8.420;2023-07-30T01:47:07;23.20;97.60
20856;DHT22;63058;49.424;8.420;2023-07-30T01:49:33;23.10;97.60
20856;DHT22;63058;49.424;8.420;2023-07-30T01:51:58;23.10;97.70
20856;DHT22;63058;49.424;8.420;2023-07-30T01:54:24;23.10;97.70
20856;DHT22;63058;49.424;8.420;2023-07-30T01:56:50;23.20;97.80
20856;DHT22;63058;49.424;8.420;2023-07-30T01:59:15;23.20;97.90
20856;DHT22;63058;49.424;8.420;2023-07-30T02:01:42;23.20;97.80
20856;DHT22;63058;49.424;8.420;2023-07-30T02:04:08;23.30;97.70
20856;DHT22;63058;49.424;8.420;2023-07-30T02:06:34;23.30;97.70
20856;DHT22;63058;49.424;8.420;2023-07-30T02:08:59;23.30;97.70
20856;DHT22;63058;49.424;8.420;2023-07-30T02:11:25;23.30;97.70
20856;DHT22;63058;49.424;8.420;2023-07-30T02:13:51;23.30;97.70
20856;DHT22;63058;49.424;8.420;2023-07-30T02:16:16;23.30;97.70
20856;DHT22;63058;49.424;8.420;2023-07-30T02:18:42;23.30;97.70
20856;DHT22;63058;49.424;8.420;2023-07-30T02:21:08;23.40;97.60
20856;DHT22;63058;49.424;8.420;2023-07-30T02:23:33;23.40;97.60
20856;DHT22;63058;49.424;8.420;2023-07-30T02:25:59;23.40;97.60
20856;DHT22;63058;49.424;8.420;2023-07-30T02:28:24;23.40;97.60
20856;DHT22;63058;49.424;8.420;2023-07-30T02:30:50;23.40;97.60
20856;DHT22;63058;49.424;8.420;2023-07-30T02:33:16;23.40;97.70
20856;DHT22;63058;49.424;8.420;2023-07-30T02:35:43;23.40;97.80
20856;DHT22;63058;49.424;8.420;2023-07-30T02:38:09;23.40;97.80
20856;DHT22;63058;49.424;8.420;2023-07-30T02:40:34;23.40;97.90
20856;DHT22;63058;49.424;8.420;2023-07-30T02:43:00;23.40;97.80
20856;DHT22;63058;49.424;8.420;2023-07-30T02:45:26;23.50;98.10
20856;DHT22;63058;49.424;8.420;2023-07-30T02:47:51;23.50;97.80
20856;DHT22;63058;49.424;8.420;2023-07-30T02:50:17;23.60;97.70
20856;DHT22;63058;49.424;8.420;2023-07-30T02:52:42;23.60;97.80
20856;DHT22;63058;49.424;8.420;2023-07-30T02:55:08;23.60;97.70
20856;DHT22;63058;49.424;8.420;2023-07-30T02:57:34;23.60;97.70
20856;DHT22;63058;49.424;8.420;2023-07-30T02:59:59;23.60;97.60
20856;DHT22;63058;49.424;8.420;2023-07-30T03:02:25;23.60;97.60
20856;DHT22;63058;49.424;8.420;2023-07-30T03:04:51;23.60;97.60
20856;DHT22;63058;49.424;8.420;2023-07-30T03:07:16;23.60;97.60
20856;DHT22;63058;49.424;8.420;2023-07-30T03:09:43;23.50;97.70
20856;DHT22;63058;49.424;8.420;2023-07-30T03:12:09;23.50;97.60
20856;DHT22;63058;49.424;8.420;2023-07-30T03:14:34;23.50;97.60
20856;DHT22;63058;49.424;8.420;2023-07-30T03:17:00;23.40;97.60
20856;DHT22;63058;49.424;8.420;2023-07-30T03:19:26;23.30;97.70
20856;DHT22;63058;49.424;8.420;2023-07-30T03:21:51;23.30;97.90
20856;DHT22;63058;49.424;8.420;2023-07-30T03:24:17;23.20;98.00
20856;DHT22;63058;49.424;8.420;2023-07-30T03:26:42;23.20;98.10
20856;DHT22;63058;49.424;8.420;2023-07-30T03:29:08;23.20;98.20
20856;DHT22;63058;49.424;8.420;2023-07-30T03:31:34;23.20;98.60
20856;DHT22;63058;49.424;8.420;2023-07-30T03:33:59;23.30;98.30
20856;DHT22;63058;49.424;8.420;2023-07-30T03:36:25;23.30;98.20
20856;DHT22;63058;49.424;8.420;2023-07-30T03:38:50;23.30;98.10
20856;DHT22;63058;49.424;8.420;2023-07-30T03:41:16;23.30;98.10
20856;DHT22;63058;49.424;8.420;2023-07-30T03:43:42;23.30;98.20
20856;DHT22;63058;49.424;8.420;2023-07-30T03:46:07;23.20;98.10
20856;DHT22;63058;49.424;8.420;2023-07-30T03:48:33;23.20;98.10
20856;DHT22;63058;49.424;8.420;2023-07-30T03:50:58;23.20;98.10
20856;DHT22;63058;49.424;8.420;2023-07-30T03:53:24;23.10;98.10
20856;DHT22;63058;49.424;8.420;2023-07-30T03:55:50;23.10;98.10
20856;DHT22;63058;49.424;8.420;2023-07-30T03:58:15;23.10;98.00
20856;DHT22;63058;49.424;8.420;2023-07-30T04:00:41;23.00;98.10
20856;DHT22;63058;49.424;8.420;2023-07-30T04:03:07;22.80;98.30
20856;DHT22;63058;49.424;8.420;2023-07-30T04:05:33;22.80;98.50
20856;DHT22;63058;49.424;8.420;2023-07-30T04:07:58;22.70;98.90
20856;DHT22;63058;49.424;8.420;2023-07-30T04:10:24;22.70;98.70
20856;DHT22;63058;49.424;8.420;2023-07-30T04:12:50;22.60;98.80
20856;DHT22;63058;49.424;8.420;2023-07-30T04:15:16;22.50;99.00
20856;DHT22;63058;49.424;8.420;2023-07-30T04:17:42;22.50;99.20
20856;DHT22;63058;49.424;8.420;2023-07-30T04:20:08;22.50;99.30
20856;DHT22;63058;49.424;8.420;2023-07-30T04:22:37;22.40;99.30
20856;DHT22;63058;49.424;8.420;2023-07-30T04:25:03;22.40;99.50
20856;DHT22;63058;49.424;8.420;2023-07-30T04:27:29;22.40;99.60
20856;DHT22;63058;49.424;8.420;2023-07-30T04:29:55;22.40;99.70
20856;DHT22;63058;49.424;8.420;2023-07-30T04:32:20;22.40;99.80
20856;DHT22;63058;49.424;8.420;2023-07-30T04:34:46;22.40;99.90
20856;DHT22;63058;49.424;8.420;2023-07-30T04:37:12;22.30;99.90
20856;DHT22;63058;49.424;8.420;2023-07-30T04:39:37;22.30;99.90
20856;DHT22;63058;49.424;8.420;2023-07-30T04:42:03;22.30;99.90
20856;DHT22;63058;49.424;8.420;2023-07-30T04:44:29;22.30;99.90
20856;DHT22;63058;49.424;8.420;2023-07-30T04:46:55;22.20;99.90
20856;DHT22;63058;49.424;8.420;2023-07-30T04:49:21;22.20;99.90
20856;DHT22;63058;49.424;8.420;2023-07-30T04:51:46;22.20;99.90
20856;DHT22;63058;49.424;8.420;2023-07-30T04:54:12;22.30;99.90
20856;DHT22;63058;49.424;8.420;2023-07-30T04:56:37;22.30;99.90
20856;DHT22;63058;49.424;8.420;2023-07-30T04:59:03;22.30;99.90
20856;DHT22;63058;49.424;8.420;2023-07-30T05:01:29;22.40;99.90
20856;DHT22;63058;49.424;8.420;2023-07-30T05:03:56;22.40;99.90
20856;DHT22;63058;49.424;8.420;2023-07-30T05:06:22;22.50;99.90
20856;DHT22;63058;49.424;8.420;2023-07-30T05:08:48;22.50;99.90
20856;DHT22;63058;49.424;8.420;2023-07-30T05:11:13;22.60;99.90
20856;DHT22;63058;49.424;8.420;2023-07-30T05:13:39;22.70;99.90
20856;DHT22;63058;49.424;8.420;2023-07-30T05:16:05;22.70;99.90
20856;DHT22;63058;49.424;8.420;2023-07-30T05:18:30;22.70;99.90
20856;DHT22;63058;49.424;8.420;2023-07-30T05:20:56;22.80;99.80
20856;DHT22;63058;49.424;8.420;2023-07-30T05:23:21;22.80;99.70
20856;DHT22;63058;49.424;8.420;2023-07-30T05:25:47;22.80;99.80
20856;DHT22;63058;49.424;8.420;2023-07-30T05:28:13;22.80;99.90
20856;DHT22;63058;49.424;8.420;2023-07-30T05:30:38;22.90;99.90
20856;DHT22;63058;49.424;8.420;2023-07-30T05:33:04;22.90;99.90
20856;DHT22;63058;49.424;8.420;2023-07-30T05:35:30;23.00;99.90
20856;DHT22;63058;49.424;8.420;2023-07-30T05:37:56;23.10;99.90
20856;DHT22;63058;49.424;8.420;2023-07-30T05:40:22;23.10;99.90
20856;DHT22;63058;49.424;8.420;2023-07-30T05:42:48;23.20;99.90
20856;DHT22;63058;49.424;8.420;2023-07-30T05:45:13;23.20;99.90
20856;DHT22;63058;49.424;8.420;2023-07-30T05:47:39;23.20;99.90
20856;DHT22;63058;49.424;8.420;2023-07-30T05:50:06;23.30;99.90
20856;DHT22;63058;49.424;8.420;2023-07-30T05:52:32;23.30;99.90
20856;DHT22;63058;49.424;8.420;2023-07-30T05:54:58;23.30;99.90
20856;DHT22;63058;49.424;8.420;2023-07-30T05:57:24;23.40;99.90
20856;DHT22;63058;49.424;8.420;2023-07-30T05:59:49;23.40;99.90
20856;DHT22;63058;49.424;8.420;2023-07-30T06:02:15;23.40;99.90
20856;DHT22;63058;49.424;8.420;2023-07-30T06:04:41;23.40;99.90
20856;DHT22;63058;49.424;8.420;2023-07-30T06:07:06;23.50;99.90
20856;DHT22;63058;49.424;8.420;2023-07-30T06:09:32;23.50;99.90
20856;DHT22;63058;49.424;8.420;2023-07-30T06:11:58;23.60;99.90
20856;DHT22;63058;49.424;8.420;2023-07-30T06:14:24;23.70;99.90
20856;DHT22;63058;49.424;8.420;2023-07-30T06:16:51;23.80;99.90
20856;DHT22;63058;49.424;8.420;2023-07-30T06:19:17;23.80;99.90
20856;DHT22;63058;49.424;8.420;2023-07-30T06:21:43;23.90;99.90
20856;DHT22;63058;49.424;8.420;2023-07-30T06:24:08;24.00;99.90
20856;DHT22;63058;49.424;8.420;2023-07-30T06:26:34;24.10;99.90
20856;DHT22;63058;49.424;8.420;2023-07-30T06:28:59;24.10;99.90
20856;DHT22;63058;49.424;8.420;2023-07-30T06:31:25;24.10;99.90
20856;DHT22;63058;49.424;8.420;2023-07-30T06:33:51;24.20;99.90
20856;DHT22;63058;49.424;8.420;2023-07-30T06:36:16;24.30;99.90
20856;DHT22;63058;49.424;8.420;2023-07-30T06:38:42;24.30;99.90
20856;DHT22;63058;49.424;8.420;2023-07-30T06:41:08;24.40;99.90
20856;DHT22;63058;49.424;8.420;2023-07-30T06:43:33;24.40;99.90
20856;DHT22;63058;49.424;8.420;2023-07-30T06:45:59;24.40;99.90
20856;DHT22;63058;49.424;8.420;2023-07-30T06:48:24;24.40;99.90
20856;DHT22;63058;49.424;8.420;2023-07-30T06:50:50;24.50;99.90
20856;DHT22;63058;49.424;8.420;2023-07-30T06:53:16;24.50;99.90
20856;DHT22;63058;49.424;8.420;2023-07-30T06:55:41;24.50;99.90
20856;DHT22;63058;49.424;8.420;2023-07-30T06:58:07;24.60;99.90
20856;DHT22;63058;49.424;8.420;2023-07-30T07:00:32;24.60;99.90
20856;DHT22;63058;49.424;8.420;2023-07-30T07:02:58;24.60;99.90
20856;DHT22;63058;49.424;8.420;2023-07-30T07:05:24;24.60;99.90
20856;DHT22;63058;49.424;8.420;2023-07-30T07:07:49;24.60;99.90
20856;DHT22;63058;49.424;8.420;2023-07-30T07:10:15;24.60;99.90
20856;DHT22;63058;49.424;8.420;2023-07-30T07:12:41;24.50;99.80
20856;DHT22;63058;49.424;8.420;2023-07-30T07:15:07;24.40;99.60
20856;DHT22;63058;49.424;8.420;2023-07-30T07:17:33;24.20;99.80
20856;DHT22;63058;49.424;8.420;2023-07-30T07:19:58;24.00;99.90
20856;DHT22;63058;49.424;8.420;2023-07-30T07:22:24;23.80;99.90
20856;DHT22;63058;49.424;8.420;2023-07-30T07:24:51;23.70;99.90
20856;DHT22;63058;49.424;8.420;2023-07-30T07:27:19;23.60;99.90
20856;DHT22;63058;49.424;8.420;2023-07-30T07:29:46;23.40;99.90
20856;DHT22;63058;49.424;8.420;2023-07-30T07:32:11;23.30;99.90
20856;DHT22;63058;49.424;8.420;2023-07-30T07:34:37;23.30;99.90
20856;DHT22;63058;49.424;8.420;2023-07-30T07:37:03;23.30;99.90
20856;DHT22;63058;49.424;8.420;2023-07-30T07:39:29;23.20;99.90
20856;DHT22;63058;49.424;8.420;2023-07-30T07:41:55;23.30;99.90
20856;DHT22;63058;49.424;8.420;2023-07-30T07:44:21;23.20;99.90
20856;DHT22;63058;49.424;8.420;2023-07-30T07:46:47;23.30;99.90
20856;DHT22;63058;49.424;8.420;2023-07-30T07:49:12;23.30;99.90
20856;DHT22;63058;49.424;8.420;2023-07-30T07:51:38;23.30;99.90
20856;DHT22;63058;49.424;8.420;2023-07-30T07:54:04;23.40;99.90
20856;DHT22;63058;49.424;8.420;2023-07-30T07:56:30;23.50;99.90
20856;DHT22;63058;49.424;8.420;2023-07-30T07:58:57;23.60;99.90
20856;DHT22;63058;49.424;8.420;2023-07-30T08:01:22;23.70;99.90
20856;DHT22;63058;49.424;8.420;2023-07-30T08:03:48;23.90;99.90
20856;DHT22;63058;49.424;8.420;2023-07-30T08:06:14;24.00;99.90
20856;DHT22;63058;49.424;8.420;2023-07-30T08:08:39;24.20;99.90
20856;DHT22;63058;49.424;8.420;2023-07-30T08:11:06;24.40;99.90
20856;DHT22;63058;49.424;8.420;2023-07-30T08:13:32;24.50;99.90
20856;DHT22;63058;49.424;8.420;2023-07-30T08:15:58;24.70;99.90
20856;DHT22;63058;49.424;8.420;2023-07-30T08:18:24;24.80;99.90
20856;DHT22;63058;49.424;8.420;2023-07-30T08:20:50;24.80;99.90
20856;DHT22;63058;49.424;8.420;2023-07-30T08:23:15;24.90;99.90
20856;DHT22;63058;49.424;8.420;2023-07-30T08:25:41;24.90;99.90
20856;DHT22;63058;49.424;8.420;2023-07-30T08:28:07;24.80;99.00
20856;DHT22;63058;49.424;8.420;2023-07-30T08:30:32;24.80;98.50
20856;DHT22;63058;49.424;8.420;2023-07-30T08:32:58;24.70;97.60
20856;DHT22;63058;49.424;8.420;2023-07-30T08:35:24;24.70;97.30
20856;DHT22;63058;49.424;8.420;2023-07-30T08:37:49;24.60;97.70
20856;DHT22;63058;49.424;8.420;2023-07-30T08:40:15;24.60;97.70
20856;DHT22;63058;49.424;8.420;2023-07-30T08:42:41;24.60;97.90
20856;DHT22;63058;49.424;8.420;2023-07-30T08:45:07;24.60;97.90
20856;DHT22;63058;49.424;8.420;2023-07-30T08:47:37;24.70;98.00
20856;DHT22;63058;49.424;8.420;2023-07-30T08:50:03;24.80;97.60
20856;DHT22;63058;49.424;8.420;2023-07-30T08:52:29;24.80;97.50
20856;DHT22;63058;49.424;8.420;2023-07-30T08:54:56;25.00;96.70
20856;DHT22;63058;49.424;8.420;2023-07-30T08:57:24;25.10;96.80
20856;DHT22;63058;49.424;8.420;2023-07-30T08:59:58;25.20;96.10
20856;DHT22;63058;49.424;8.420;2023-07-30T09:02:39;25.30;94.90
20856;DHT22;63058;49.424;8.420;2023-07-30T09:05:07;25.50;93.70
20856;DHT22;63058;49.424;8.420;2023-07-30T09:07:33;25.60;95.20
20856;DHT22;63058;49.424;8.420;2023-07-30T09:09:58;25.70;94.30
20856;DHT22;63058;49.424;8.420;2023-07-30T09:12:32;25.90;94.10
20856;DHT22;63058;49.424;8.420;2023-07-30T09:14:57;26.00;92.90
20856;DHT22;63058;49.424;8.420;2023-07-30T09:17:23;26.10;93.90
20856;DHT22;63058;49.424;8.420;2023-07-30T09:19:49;26.20;93.70
20856;DHT22;63058;49.424;8.420;2023-07-30T09:22:25;26.20;93.10
20856;DHT22;63058;49.424;8.420;2023-07-30T09:24:52;26.20;92.00
20856;DHT22;63058;49.424;8.420;2023-07-30T09:27:21;26.30;92.10
20856;DHT22;63058;49.424;8.420;2023-07-30T09:29:55;26.30;90.60
20856;DHT22;63058;49.424;8.420;2023-07-30T09:32:25;26.20;88.90
20856;DHT22;63058;49.424;8.420;2023-07-30T09:34:51;26.20;87.10
20856;DHT22;63058;49.424;8.420;2023-07-30T09:37:17;26.20;90.20
20856;DHT22;63058;49.424;8.420;2023-07-30T09:39:43;26.10;89.60
20856;DHT22;63058;49.424;8.420;2023-07-30T09:42:09;26.10;90.20
20856;DHT22;63058;49.424;8.420;2023-07-30T09:44:37;26.10;89.10
20856;DHT22;63058;49.424;8.420;2023-07-30T09:47:04;26.20;87.90
20856;DHT22;63058;49.424;8.420;2023-07-30T09:49:31;26.20;87.80
20856;DHT22;63058;49.424;8.420;2023-07-30T09:52:00;26.30;88.00
20856;DHT22;63058;49.424;8.420;2023-07-30T09:54:26;26.30;87.00
20856;DHT22;63058;49.424;8.420;2023-07-30T09:56:52;26.30;85.80
20856;DHT22;63058;49.424;8.420;2023-07-30T09:59:18;26.40;86.60
20856;DHT22;63058;49.424;8.420;2023-07-30T10:01:46;26.50;87.20
20856;DHT22;63058;49.424;8.420;2023-07-30T10:04:15;26.50;86.90
20856;DHT22;63058;49.424;8.420;2023-07-30T10:07:04;26.70;85.70
20856;DHT22;63058;49.424;8.420;2023-07-30T10:09:37;26.80;83.20
20856;DHT22;63058;49.424;8.420;2023-07-30T10:12:28;26.90;83.20
20856;DHT22;63058;49.424;8.420;2023-07-30T10:14:56;26.90;84.30
20856;DHT22;63058;49.424;8.420;2023-07-30T10:17:22;26.90;83.80
20856;DHT22;63058;49.424;8.420;2023-07-30T10:19:48;27.00;84.20
20856;DHT22;63058;49.424;8.420;2023-07-30T10:24:56;27.00;82.00
20856;DHT22;63058;49.424;8.420;2023-07-30T10:27:36;27.00;80.20
20856;DHT22;63058;49.424;8.420;2023-07-30T10:30:29;27.20;80.60
20856;DHT22;63058;49.424;8.420;2023-07-30T10:35:38;27.30;79.90
20856;DHT22;63058;49.424;8.420;2023-07-30T10:38:29;27.30;77.50
20856;DHT22;63058;49.424;8.420;2023-07-30T10:43:43;27.10;78.20
20856;DHT22;63058;49.424;8.420;2023-07-30T10:46:10;27.10;79.30
20856;DHT22;63058;49.424;8.420;2023-07-30T10:48:41;27.00;77.00
20856;DHT22;63058;49.424;8.420;2023-07-30T10:51:18;27.00;78.40
20856;DHT22;63058;49.424;8.420;2023-07-30T10:53:48;27.00;77.00
20856;DHT22;63058;49.424;8.420;2023-07-30T10:56:22;27.00;76.90
20856;DHT22;63058;49.424;8.420;2023-07-30T10:58:50;27.00;76.80
20856;DHT22;63058;49.424;8.420;2023-07-30T11:01:16;27.10;79.60
20856;DHT22;63058;49.424;8.420;2023-07-30T11:03:42;27.10;79.50
20856;DHT22;63058;49.424;8.420;2023-07-30T11:06:07;27.00;80.00
20856;DHT22;63058;49.424;8.420;2023-07-30T11:11:04;27.00;78.60
20856;DHT22;63058;49.424;8.420;2023-07-30T11:13:34;27.00;80.60
20856;DHT22;63058;49.424;8.420;2023-07-30T11:16:00;27.00;80.90
20856;DHT22;63058;49.424;8.420;2023-07-30T11:18:31;27.00;78.20
20856;DHT22;63058;49.424;8.420;2023-07-30T11:21:06;26.90;77.30
20856;DHT22;63058;49.424;8.420;2023-07-30T11:23:33;26.90;77.00
20856;DHT22;63058;49.424;8.420;2023-07-30T11:26:00;26.90;76.50
20856;DHT22;63058;49.424;8.420;2023-07-30T11:28:33;26.80;75.70
20856;DHT22;63058;49.424;8.420;2023-07-30T11:31:10;26.70;75.20
20856;DHT22;63058;49.424;8.420;2023-07-30T11:33:41;26.70;75.30
20856;DHT22;63058;49.424;8.420;2023-07-30T11:36:10;26.80;78.40
20856;DHT22;63058;49.424;8.420;2023-07-30T11:38:38;27.10;80.30
20856;DHT22;63058;49.424;8.420;2023-07-30T11:41:04;27.50;79.60
20856;DHT22;63058;49.424;8.420;2023-07-30T11:43:31;27.70;76.60
20856;DHT22;63058;49.424;8.420;2023-07-30T11:46:08;27.90;75.10
20856;DHT22;63058;49.424;8.420;2023-07-30T11:48:34;27.90;68.60
20856;DHT22;63058;49.424;8.420;2023-07-30T11:51:00;27.90;67.80
20856;DHT22;63058;49.424;8.420;2023-07-30T11:54:04;27.80;66.50
20856;DHT22;63058;49.424;8.420;2023-07-30T11:56:31;27.60;64.20
20856;DHT22;63058;49.424;8.420;2023-07-30T11:58:59;27.50;69.20
20856;DHT22;63058;49.424;8.420;2023-07-30T12:01:26;27.50;70.30
20856;DHT22;63058;49.424;8.420;2023-07-30T12:03:56;27.50;73.10
20856;DHT22;63058;49.424;8.420;2023-07-30T12:06:23;27.70;73.90
20856;DHT22;63058;49.424;8.420;2023-07-30T12:08:49;27.90;71.00
20856;DHT22;63058;49.424;8.420;2023-07-30T12:11:17;27.90;70.50
20856;DHT22;63058;49.424;8.420;2023-07-30T12:13:44;27.90;65.10
20856;DHT22;63058;49.424;8.420;2023-07-30T12:16:11;27.70;65.30
20856;DHT22;63058;49.424;8.420;2023-07-30T12:18:38;27.60;65.40
20856;DHT22;63058;49.424;8.420;2023-07-30T12:21:04;27.60;64.60
20856;DHT22;63058;49.424;8.420;2023-07-30T12:23:32;27.50;66.30
20856;DHT22;63058;49.424;8.420;2023-07-30T12:25:58;27.50;66.70
20856;DHT22;63058;49.424;8.420;2023-07-30T12:28:23;27.40;67.60
20856;DHT22;63058;49.424;8.420;2023-07-30T12:30:49;27.50;67.30
20856;DHT22;63058;49.424;8.420;2023-07-30T12:33:14;27.50;65.10
20856;DHT22;63058;49.424;8.420;2023-07-30T12:35:40;27.50;65.60
20856;DHT22;63058;49.424;8.420;2023-07-30T12:38:06;27.50;65.60
20856;DHT22;63058;49.424;8.420;2023-07-30T12:40:32;27.50;62.00
20856;DHT22;63058;49.424;8.420;2023-07-30T12:43:03;27.40;64.00
20856;DHT22;63058;49.424;8.420;2023-07-30T12:45:30;27.40;65.30
20856;DHT22;63058;49.424;8.420;2023-07-30T12:47:56;27.50;67.20
20856;DHT22;63058;49.424;8.420;2023-07-30T12:50:21;27.60;68.50
20856;DHT22;63058;49.424;8.420;2023-07-30T12:52:47;27.70;69.20
20856;DHT22;63058;49.424;8.420;2023-07-30T12:55:13;27.70;68.20
20856;DHT22;63058;49.424;8.420;2023-07-30T12:57:38;27.80;68.70
20856;DHT22;63058;49.424;8.420;2023-07-30T13:00:04;27.70;68.10
20856;DHT22;63058;49.424;8.420;2023-07-30T13:02:30;27.70;67.60
20856;DHT22;63058;49.424;8.420;2023-07-30T13:04:59;27.60;67.80
20856;DHT22;63058;49.424;8.420;2023-07-30T13:07:25;27.60;68.00
20856;DHT22;63058;49.424;8.420;2023-07-30T13:10:06;27.60;68.90
20856;DHT22;63058;49.424;8.420;2023-07-30T13:12:32;27.60;66.40
20856;DHT22;63058;49.424;8.420;2023-07-30T13:14:58;27.60;68.00
20856;DHT22;63058;49.424;8.420;2023-07-30T13:17:24;27.60;67.30
20856;DHT22;63058;49.424;8.420;2023-07-30T13:19:49;27.60;66.70
20856;DHT22;63058;49.424;8.420;2023-07-30T13:22:17;27.60;66.20
20856;DHT22;63058;49.424;8.420;2023-07-30T13:24:46;27.60;65.50
20856;DHT22;63058;49.424;8.420;2023-07-30T13:27:15;27.50;65.00
20856;DHT22;63058;49.424;8.420;2023-07-30T13:29:46;27.50;64.50
20856;DHT22;63058;49.424;8.420;2023-07-30T13:32:17;27.50;63.10
20856;DHT22;63058;49.424;8.420;2023-07-30T13:34:45;27.30;62.70
20856;DHT22;63058;49.424;8.420;2023-07-30T13:37:16;27.30;63.70
20856;DHT22;63058;49.424;8.420;2023-07-30T13:39:48;27.20;62.50
20856;DHT22;63058;49.424;8.420;2023-07-30T13:42:27;27.20;63.60
20856;DHT22;63058;49.424;8.420;2023-07-30T13:45:19;27.10;62.40
20856;DHT22;63058;49.424;8.420;2023-07-30T13:51:12;27.10;60.90
20856;DHT22;63058;49.424;8.420;2023-07-30T13:54:14;27.00;62.20
20856;DHT22;63058;49.424;8.420;2023-07-30T13:59:54;27.00;62.30
20856;DHT22;63058;49.424;8.420;2023-07-30T14:02:46;26.90;61.40
20856;DHT22;63058;49.424;8.420;2023-07-30T14:05:14;27.00;61.40
20856;DHT22;63058;49.424;8.420;2023-07-30T14:07:43;27.00;62.30
20856;DHT22;63058;49.424;8.420;2023-07-30T14:10:24;27.00;60.70
20856;DHT22;63058;49.424;8.420;2023-07-30T14:13:04;27.00;61.10
20856;DHT22;63058;49.424;8.420;2023-07-30T14:15:59;27.10;60.30
20856;DHT22;63058;49.424;8.420;2023-07-30T14:18:31;27.10;59.60
20856;DHT22;63058;49.424;8.420;2023-07-30T14:21:05;27.20;60.90
20856;DHT22;63058;49.424;8.420;2023-07-30T14:23:56;27.20;61.80
20856;DHT22;63058;49.424;8.420;2023-07-30T14:26:33;27.10;59.30
20856;DHT22;63058;49.424;8.420;2023-07-30T14:29:16;27.10;60.40
20856;DHT22;63058;49.424;8.420;2023-07-30T14:31:46;27.20;61.70
20856;DHT22;63058;49.424;8.420;2023-07-30T14:34:15;27.30;61.90
20856;DHT22;63058;49.424;8.420;2023-07-30T14:36:59;27.50;63.30
20856;DHT22;63058;49.424;8.420;2023-07-30T14:39:30;27.90;63.00
20856;DHT22;63058;49.424;8.420;2023-07-30T14:42:07;28.40;63.00
20856;DHT22;63058;49.424;8.420;2023-07-30T14:44:44;29.00;61.20
20856;DHT22;63058;49.424;8.420;2023-07-30T14:47:20;29.20;60.40
20856;DHT22;63058;49.424;8.420;2023-07-30T14:49:55;29.60;60.80
20856;DHT22;63058;49.424;8.420;2023-07-30T14:52:42;29.90;59.40
20856;DHT22;63058;49.424;8.420;2023-07-30T14:55:13;30.40;59.50
20856;DHT22;63058;49.424;8.420;2023-07-30T14:57:56;30.80;57.90
20856;DHT22;63058;49.424;8.420;2023-07-30T15:00:31;31.10;58.50
20856;DHT22;63058;49.424;8.420;2023-07-30T15:03:06;31.20;54.10
20856;DHT22;63058;49.424;8.420;2023-07-30T15:05:32;31.40;55.60
20856;DHT22;63058;49.424;8.420;2023-07-30T15:08:01;31.50;56.20
20856;DHT22;63058;49.424;8.420;2023-07-30T15:10:51;31.70;56.00
20856;DHT22;63058;49.424;8.420;2023-07-30T15:13:19;31.90;56.70
20856;DHT22;63058;49.424;8.420;2023-07-30T15:16:07;31.90;55.00
20856;DHT22;63058;49.424;8.420;2023-07-30T15:18:47;31.70;53.90
20856;DHT22;63058;49.424;8.420;2023-07-30T15:21:13;31.40;52.90
20856;DHT22;63058;49.424;8.420;2023-07-30T15:23:46;31.10;52.00
20856;DHT22;63058;49.424;8.420;2023-07-30T15:26:17;30.70;50.40
20856;DHT22;63058;49.424;8.420;2023-07-30T15:28:48;30.40;50.80
20856;DHT22;63058;49.424;8.420;2023-07-30T15:31:45;30.40;50.50
20856;DHT22;63058;49.424;8.420;2023-07-30T15:34:13;30.60;53.00
20856;DHT22;63058;49.424;8.420;2023-07-30T15:36:57;30.80;52.70
20856;DHT22;63058;49.424;8.420;2023-07-30T15:39:39;31.30;51.80
20856;DHT22;63058;49.424;8.420;2023-07-30T15:42:15;31.60;54.10
20856;DHT22;63058;49.424;8.420;2023-07-30T15:47:49;31.80;51.10
20856;DHT22;63058;49.424;8.420;2023-07-30T15:50:37;31.50;48.10
20856;DHT22;63058;49.424;8.420;2023-07-30T15:53:17;31.30;52.40
20856;DHT22;63058;49.424;8.420;2023-07-30T15:55:52;31.30;55.40
20856;DHT22;63058;49.424;8.420;2023-07-30T15:58:22;31.60;53.30